Time;durP1;ratioP1;P1;durP2;ratioP2;P2;SDS_P1;SDS_P2;PMS_P1;PMS_P2;Temp;Humidity;BMP_temperature;BMP_pressure;BME280_temperature;BME280_humidity;BME280_pressure;Samples;Min_cycle;Max_cycle;Signal;HPM_P1;HPM_P2
2023/06/11 00:00:04;;;;;;;12.77;4.23;;;;;;;16.73;53.14;100623.09;4197218;28;21593;-68
2023/06/11 00:02:33;;;;;;;9.07;3.80;;;;;;;16.74;52.87;100622.91;4193606;28;22311;-69
2023/06/11 00:05:03;;;;;;;12.63;4.23;;;;;;;16.69;53.02;100619.88;4198147;28;21746;-69
2023/06/11 00:07:30;;;;;;;9.70;3.67;;;;;;;16.68;52.75;100623.63;4189739;28;20415;-68
2023/06/11 00:09:57;;;;;;;12.60;4.10;;;;;;;16.64;52.91;100623.16;4202247;28;21398;-70
2023/06/11 00:12:23;;;;;;;11.33;4.03;;;;;;;16.60;52.78;100624.56;4199961;28;20248;-68
2023/06/11 00:14:50;;;;;;;10.00;3.97;;;;;;;16.52;53.12;100623.75;4194597;28;20230;-68
2023/06/11 00:17:16;;;;;;;9.80;4.43;;;;;;;16.49;53.18;100627.69;4200130;28;20232;-68
2023/06/11 00:19:43;;;;;;;9.60;4.07;;;;;;;16.46;52.65;100628.09;4192800;28;20284;-67
2023/06/11 00:22:11;;;;;;;11.07;4.10;;;;;;;16.42;52.97;100627.59;4196271;28;22299;-68
2023/06/11 00:24:38;;;;;;;11.53;3.83;;;;;;;16.34;53.22;100624.91;4200316;28;20260;-68
2023/06/11 00:27:05;;;;;;;10.93;4.17;;;;;;;16.22;53.31;100626.34;4194781;28;20237;-67
2023/06/11 00:29:31;;;;;;;9.23;3.97;;;;;;;16.29;52.94;100630.91;4201152;28;20240;-69
2023/06/11 00:31:58;;;;;;;8.07;3.50;;;;;;;16.27;52.89;100629.41;4205263;28;22727;-68
2023/06/11 00:34:25;;;;;;;11.73;3.50;;;;;;;16.10;53.35;100626.75;4209356;28;20716;-68
2023/06/11 00:36:52;;;;;;;8.53;4.03;;;;;;;16.12;53.07;100627.44;4197006;28;20284;-68
2023/06/11 00:39:18;;;;;;;8.57;3.70;;;;;;;16.05;53.18;100629.16;4208664;28;20518;-69
2023/06/11 00:41:45;;;;;;;9.47;3.83;;;;;;;16.03;53.35;100633.09;4206184;28;20777;-68
2023/06/11 00:44:17;;;;;;;9.20;3.43;;;;;;;16.11;52.86;100628.47;4197856;28;20267;-70
2023/06/11 00:46:45;;;;;;;13.40;3.93;;;;;;;16.03;52.98;100641.28;4201516;28;20229;-68
2023/06/11 00:49:12;;;;;;;8.13;3.50;;;;;;;15.94;52.97;100641.31;4196495;28;20237;-68
2023/06/11 00:51:41;;;;;;;8.90;4.00;;;;;;;15.87;53.04;100637.63;4182972;28;20240;-68
2023/06/11 00:54:12;;;;;;;8.60;3.47;;;;;;;15.89;52.96;100640.19;4199761;28;20542;-67
2023/06/11 00:56:41;;;;;;;9.63;3.83;;;;;;;15.86;52.90;100640.53;4197130;28;20237;-68
2023/06/11 00:59:08;;;;;;;15.00;3.80;;;;;;;15.87;52.74;100642.22;4197682;28;20566;-68
2023/06/11 01:01:41;;;;;;;9.63;3.40;;;;;;;15.82;52.76;100640.00;4207646;28;20524;-68
2023/06/11 01:04:13;;;;;;;8.87;3.63;;;;;;;15.80;52.95;100637.44;4207299;28;20245;-70
2023/06/11 01:06:46;;;;;;;8.00;3.37;;;;;;;15.85;52.88;100639.69;4194601;28;20233;-68
2023/06/11 01:09:13;;;;;;;5.83;3.30;;;;;;;15.71;52.95;100638.50;4194099;28;21215;-68
2023/06/11 01:11:39;;;;;;;10.17;3.37;;;;;;;15.60;53.49;100649.78;4198082;28;23268;-69
2023/06/11 01:14:06;;;;;;;16.13;3.50;;;;;;;15.61;53.19;100638.72;4198122;28;21442;-68
2023/06/11 01:17:15;;;;;;;5.77;3.30;;;;;;;15.53;52.91;100644.19;4187707;28;20298;-68
2023/06/11 01:19:52;;;;;;;18.77;3.43;;;;;;;15.39;53.46;100644.91;4203136;28;20241;-68
2023/06/11 01:22:29;;;;;;;10.17;3.30;;;;;;;15.39;53.17;100651.22;4206799;28;20290;-67
2023/06/11 01:24:56;;;;;;;8.87;3.27;;;;;;;15.50;52.54;100648.13;4181942;28;20247;-69
2023/06/11 01:27:40;;;;;;;6.17;3.47;;;;;;;15.40;52.61;100657.53;4209345;28;20307;-68
2023/06/11 01:30:09;;;;;;;5.50;2.90;;;;;;;15.31;52.57;100656.69;4196784;28;21651;-68
2023/06/11 01:32:36;;;;;;;8.10;2.90;;;;;;;15.22;52.93;100655.84;4180167;28;20233;-67
2023/06/11 01:35:03;;;;;;;18.63;3.23;;;;;;;15.24;52.63;100663.84;4195750;28;20233;-68
2023/06/11 01:37:32;;;;;;;8.77;2.90;;;;;;;15.19;52.66;100658.91;4201882;28;21967;-68
2023/06/11 01:39:59;;;;;;;6.53;2.43;;;;;;;15.14;52.21;100656.72;4201646;28;22039;-68
2023/06/11 01:42:26;;;;;;;11.40;3.00;;;;;;;15.00;52.54;100669.16;4201564;28;20226;-68
2023/06/11 01:44:52;;;;;;;7.77;3.00;;;;;;;14.99;52.17;100658.44;4205885;28;20229;-68
2023/06/11 01:47:19;;;;;;;11.57;2.57;;;;;;;14.98;52.17;100668.47;4201199;28;20480;-69
2023/06/11 01:49:45;;;;;;;8.70;3.07;;;;;;;15.02;52.28;100669.84;4203963;28;20236;-68
2023/06/11 01:52:12;;;;;;;6.47;2.73;;;;;;;14.96;51.97;100672.41;4181179;28;20239;-68
2023/06/11 01:54:38;;;;;;;6.67;2.77;;;;;;;14.92;52.14;100674.63;4182824;28;20305;-69
2023/06/11 01:57:06;;;;;;;8.77;2.60;;;;;;;14.82;52.18;100671.19;4198046;28;21846;-67
2023/06/11 01:59:32;;;;;;;6.43;2.50;;;;;;;14.83;52.22;100672.91;4208968;28;20245;-68
2023/06/11 02:01:59;;;;;;;4.73;2.47;;;;;;;14.74;52.06;100675.63;4196262;28;21720;-68
2023/06/11 02:04:26;;;;;;;8.97;2.83;;;;;;;14.81;52.13;100680.38;4194349;28;22135;-70
2023/06/11 02:06:52;;;;;;;7.73;2.83;;;;;;;14.79;52.08;100683.28;4197074;28;20232;-68
2023/06/11 02:09:19;;;;;;;7.57;2.40;;;;;;;14.52;52.15;100666.22;4196256;28;22331;-67
2023/06/11 02:11:45;;;;;;;8.17;2.73;;;;;;;14.57;52.53;100684.78;4198357;28;20238;-69
2023/06/11 02:14:12;;;;;;;3.73;2.17;;;;;;;14.56;52.46;100683.06;4189359;28;26196;-69
2023/06/11 02:16:39;;;;;;;5.80;2.47;;;;;;;14.48;52.50;100681.16;4204731;28;20393;-69
2023/06/11 02:19:06;;;;;;;7.57;2.70;;;;;;;14.43;52.55;100687.13;4209414;28;20297;-67
2023/06/11 02:21:33;;;;;;;10.53;2.57;;;;;;;14.40;52.65;100698.38;4198025;28;20233;-69
2023/06/11 02:23:59;;;;;;;7.53;2.50;;;;;;;14.41;52.76;100694.63;4198410;28;20669;-67
2023/06/11 02:26:26;;;;;;;8.27;2.67;;;;;;;14.41;52.74;100691.03;4209025;28;20229;-67
2023/06/11 02:28:53;;;;;;;5.57;2.10;;;;;;;14.50;52.09;100697.38;4199625;28;20238;-69
2023/06/11 02:31:19;;;;;;;4.40;2.20;;;;;;;14.45;52.21;100702.44;4187136;28;20247;-67
2023/06/11 02:33:46;;;;;;;6.90;2.50;;;;;;;14.41;52.24;100705.53;4204343;28;20658;-67
2023/06/11 02:36:12;;;;;;;3.90;2.57;;;;;;;14.32;52.24;100705.63;4208591;28;21760;-68
2023/06/11 02:38:39;;;;;;;8.97;2.50;;;;;;;14.32;52.43;100711.09;4181165;28;20371;-67
2023/06/11 02:41:06;;;;;;;8.67;2.57;;;;;;;14.27;52.57;100707.00;4196572;28;25625;-70
2023/06/11 02:43:32;;;;;;;7.47;2.87;;;;;;;14.34;52.11;100715.38;4204804;28;20307;-67
2023/06/11 02:45:59;;;;;;;14.70;3.00;;;;;;;14.22;52.54;100713.94;4198798;28;20241;-68
2023/06/11 02:48:25;;;;;;;5.47;2.50;;;;;;;14.29;52.26;100711.44;4199631;28;21119;-69
2023/06/11 02:50:52;;;;;;;7.90;2.40;;;;;;;14.22;52.32;100717.53;4208082;28;20513;-67
2023/06/11 02:53:19;;;;;;;12.03;2.50;;;;;;;14.26;52.14;100715.34;4196816;28;20233;-68
2023/06/11 02:55:45;;;;;;;13.37;3.10;;;;;;;14.26;52.29;100715.34;4184620;28;20238;-68
2023/06/11 02:58:12;;;;;;;9.17;2.67;;;;;;;14.29;52.35;100730.50;4218266;28;21471;-69
2023/06/11 03:00:39;;;;;;;6.30;2.27;;;;;;;14.40;52.16;100722.88;4202133;28;20870;-67
2023/06/11 03:03:05;;;;;;;8.97;2.60;;;;;;;14.26;52.27;100727.06;4192997;28;25782;-68
2023/06/11 03:05:32;;;;;;;7.00;2.43;;;;;;;14.35;52.33;100729.81;4206417;28;20232;-70
2023/06/11 03:07:59;;;;;;;11.77;2.57;;;;;;;14.38;52.04;100726.78;4201156;28;22766;-67
2023/06/11 03:10:27;;;;;;;8.87;2.40;;;;;;;14.49;52.12;100729.19;4195989;28;21203;-67
2023/06/11 03:12:55;;;;;;;6.83;2.53;;;;;;;14.49;51.94;100731.91;4202856;28;23314;-67
2023/06/11 03:15:21;;;;;;;8.50;2.33;;;;;;;14.50;51.76;100736.34;4202182;28;20233;-67
2023/06/11 03:17:48;;;;;;;12.30;2.43;;;;;;;14.42;51.93;100739.91;4210846;28;20338;-67
2023/06/11 03:20:14;;;;;;;4.43;2.70;;;;;;;14.47;52.07;100738.56;4196934;28;22563;-69
2023/06/11 03:22:41;;;;;;;10.47;2.50;;;;;;;14.40;52.07;100741.94;4215503;28;20666;-68
2023/06/11 03:25:08;;;;;;;3.73;2.33;;;;;;;14.47;51.84;100735.81;4218716;28;20383;-68
2023/06/11 03:27:37;;;;;;;6.83;2.17;;;;;;;14.51;51.80;100738.06;4197032;28;20799;-69
2023/06/11 03:30:05;;;;;;;4.17;2.07;;;;;;;14.56;51.79;100734.84;4204440;28;22232;-67
2023/06/11 03:32:32;;;;;;;7.37;2.77;;;;;;;14.53;51.93;100746.06;4216766;28;21229;-68
2023/06/11 03:34:59;;;;;;;6.57;2.30;;;;;;;14.49;52.05;100750.13;4199363;28;21508;-68
2023/06/11 03:37:25;;;;;;;6.00;2.23;;;;;;;14.50;51.67;100743.69;4206555;28;20232;-70
2023/06/11 03:39:52;;;;;;;7.30;2.93;;;;;;;14.50;51.67;100740.97;4211972;28;21143;-69
2023/06/11 03:42:19;;;;;;;7.67;2.73;;;;;;;14.54;51.56;100748.59;4209525;28;20235;-70
2023/06/11 03:44:45;;;;;;;10.23;2.13;;;;;;;14.65;51.59;100752.88;4197181;28;20236;-67
2023/06/11 03:47:12;;;;;;;10.33;2.10;;;;;;;14.66;51.39;100757.34;4206223;28;20961;-68
2023/06/11 03:49:39;;;;;;;8.03;2.10;;;;;;;14.61;51.48;100756.97;4204260;28;20339;-69
2023/06/11 03:52:06;;;;;;;5.27;1.93;;;;;;;14.67;51.37;100763.69;4203531;28;20237;-69
2023/06/11 03:54:32;;;;;;;7.93;2.50;;;;;;;14.79;51.42;100761.50;4190015;28;22707;-68
2023/06/11 03:56:59;;;;;;;8.43;2.50;;;;;;;14.91;50.90;100764.75;4200331;28;20244;-70
2023/06/11 03:59:25;;;;;;;4.80;2.07;;;;;;;14.96;50.69;100778.72;4207163;28;22064;-67
2023/06/11 04:01:52;;;;;;;7.00;2.80;;;;;;;14.92;51.56;100777.38;4194817;28;20802;-68
2023/06/11 04:04:19;;;;;;;9.03;2.10;;;;;;;15.09;50.51;100762.72;4207469;28;22004;-67
2023/06/11 04:06:45;;;;;;;9.77;2.40;;;;;;;15.09;50.70;100767.31;4206344;28;20225;-67
2023/06/11 04:09:12;;;;;;;6.47;2.40;;;;;;;15.10;50.84;100772.59;4200000;28;22863;-68
2023/06/11 04:11:38;;;;;;;8.00;2.20;;;;;;;15.19;50.68;100776.19;4198893;28;20249;-67
2023/06/11 04:14:05;;;;;;;5.77;2.30;;;;;;;15.27;50.55;100767.16;4208075;28;20244;-67
2023/06/11 04:16:32;;;;;;;7.57;2.43;;;;;;;15.41;49.91;100768.38;4205430;28;20298;-66
2023/06/11 04:18:58;;;;;;;5.20;2.30;;;;;;;15.50;49.50;100770.03;4199098;28;20309;-69
2023/06/11 04:21:25;;;;;;;7.23;2.07;;;;;;;15.51;49.82;100783.53;4191375;28;21777;-68
2023/06/11 04:23:51;;;;;;;7.07;2.40;;;;;;;15.70;49.09;100784.19;4206562;28;20275;-67
2023/06/11 04:26:20;;;;;;;5.93;2.33;;;;;;;15.83;48.90;100779.06;4192046;28;20601;-70
2023/06/11 04:28:48;;;;;;;5.50;2.10;;;;;;;15.69;49.25;100787.94;4211718;28;20299;-67
2023/06/11 04:31:15;;;;;;;6.80;2.10;;;;;;;15.72;49.38;100776.69;4208103;28;20310;-67
2023/06/11 04:33:41;;;;;;;6.70;2.50;;;;;;;15.88;48.97;100785.91;4186453;28;20255;-68
2023/06/11 04:36:08;;;;;;;3.80;2.10;;;;;;;15.84;48.32;100772.59;4192998;28;22213;-68
2023/06/11 04:38:37;;;;;;;15.10;2.30;;;;;;;15.81;48.75;100783.84;4202856;28;20232;-66
2023/06/11 04:41:11;;;;;;;6.77;2.70;;;;;;;15.89;48.59;100785.72;4200519;28;20232;-68
2023/06/11 04:43:37;;;;;;;7.03;2.10;;;;;;;16.05;48.26;100779.34;4189067;28;20237;-68
2023/06/11 04:46:04;;;;;;;6.73;2.37;;;;;;;15.98;48.22;100783.81;4198982;28;20367;-69
2023/06/11 04:48:34;;;;;;;6.70;2.00;;;;;;;16.05;48.32;100784.81;4195411;28;21700;-68
2023/06/11 04:51:01;;;;;;;8.13;2.00;;;;;;;16.17;48.22;100785.28;4202376;28;20291;-67
2023/06/11 04:53:29;;;;;;;6.53;2.20;;;;;;;16.18;48.37;100792.47;4198510;28;20246;-68
2023/06/11 04:55:58;;;;;;;5.03;2.40;;;;;;;16.22;47.62;100787.50;4204067;28;20237;-67
2023/06/11 04:58:29;;;;;;;4.63;2.27;;;;;;;16.31;47.97;100787.28;4203151;28;20238;-69
2023/06/11 05:00:56;;;;;;;5.93;2.13;;;;;;;16.44;47.51;100792.19;4206835;28;20240;-68
2023/06/11 05:03:24;;;;;;;6.97;2.33;;;;;;;16.43;47.25;100795.13;4205251;28;20878;-68
2023/06/11 05:05:51;;;;;;;9.57;2.17;;;;;;;16.44;47.09;100800.38;4185909;28;20240;-67
2023/06/11 05:08:18;;;;;;;9.07;2.53;;;;;;;16.44;46.97;100792.19;4199574;28;21851;-68
2023/06/11 05:10:45;;;;;;;8.60;2.27;;;;;;;16.46;46.90;100794.78;4214085;28;20231;-67
2023/06/11 05:13:12;;;;;;;8.00;2.13;;;;;;;16.55;46.86;100801.88;4197833;28;20296;-69
2023/06/11 05:15:39;;;;;;;4.63;2.40;;;;;;;16.59;46.54;100794.16;4201474;28;20304;-67
2023/06/11 05:18:06;;;;;;;4.50;2.20;;;;;;;16.70;46.47;100799.25;4204218;28;20332;-69
2023/06/11 05:20:32;;;;;;;5.33;1.93;;;;;;;17.07;45.71;100802.31;4210081;28;20237;-69
2023/06/11 05:22:59;;;;;;;4.97;1.90;;;;;;;17.34;45.11;100795.44;4204250;28;20239;-68
2023/06/11 05:25:29;;;;;;;5.47;2.37;;;;;;;17.46;44.48;100797.75;4210828;28;26808;-69
2023/06/11 05:28:00;;;;;;;7.40;2.10;;;;;;;17.90;43.88;100807.94;4214042;28;20373;-69
2023/06/11 05:30:29;;;;;;;6.30;2.00;;;;;;;18.42;42.65;100811.69;4192333;28;21167;-68
2023/06/11 05:32:56;;;;;;;4.00;2.03;;;;;;;18.87;42.22;100808.88;4183990;28;20292;-68
2023/06/11 05:35:23;;;;;;;5.23;2.30;;;;;;;19.20;41.21;100805.69;4195302;28;23766;-68
2023/06/11 05:37:49;;;;;;;4.53;2.07;;;;;;;19.06;40.95;100804.69;4193428;28;20285;-66
2023/06/11 05:40:16;;;;;;;6.17;2.13;;;;;;;18.73;41.91;100812.50;4194483;28;20260;-68
2023/06/11 05:42:43;;;;;;;5.73;1.80;;;;;;;18.91;41.37;100812.94;4202321;28;20363;-67
2023/06/11 05:45:10;;;;;;;3.23;1.97;;;;;;;19.29;41.00;100820.97;4200439;28;22107;-66
2023/06/11 05:47:36;;;;;;;10.07;2.20;;;;;;;19.44;40.72;100820.06;4189290;28;22222;-66
2023/06/11 05:50:03;;;;;;;5.43;2.20;;;;;;;19.72;40.12;100811.84;4201785;28;21190;-65
2023/06/11 05:52:30;;;;;;;4.33;1.97;;;;;;;19.86;39.69;100810.09;4208003;28;20286;-66
2023/06/11 05:54:57;;;;;;;4.20;2.03;;;;;;;20.46;38.85;100814.28;4196612;28;20245;-65
2023/06/11 05:57:24;;;;;;;8.43;1.80;;;;;;;20.64;38.82;100810.97;4196944;28;21801;-67
2023/06/11 05:59:51;;;;;;;6.97;2.03;;;;;;;21.34;37.50;100817.13;4192001;28;20628;-68
2023/06/11 06:02:18;;;;;;;7.83;2.07;;;;;;;21.24;37.11;100813.91;4197765;28;20252;-67
2023/06/11 06:04:47;;;;;;;8.13;2.00;;;;;;;22.17;36.01;100817.78;4198744;28;20372;-67
2023/06/11 06:07:15;;;;;;;4.60;1.70;;;;;;;22.21;35.37;100815.44;4212515;28;20240;-69
2023/06/11 06:09:42;;;;;;;5.87;2.00;;;;;;;22.41;35.51;100820.94;4233251;28;20237;-71
2023/06/11 06:12:09;;;;;;;4.93;1.93;;;;;;;22.12;35.65;100821.16;4193869;28;20240;-67
2023/06/11 06:14:36;;;;;;;3.93;2.17;;;;;;;22.40;35.64;100825.59;4213808;28;20677;-69
2023/06/11 06:17:02;;;;;;;8.47;2.00;;;;;;;22.87;34.37;100827.31;4200971;28;21820;-67
2023/06/11 06:19:29;;;;;;;10.50;2.20;;;;;;;22.79;34.56;100832.03;4202004;28;20287;-70
2023/06/11 06:21:56;;;;;;;4.73;1.97;;;;;;;22.68;34.72;100827.22;4182471;28;21101;-69
2023/06/11 06:24:22;;;;;;;6.20;2.00;;;;;;;23.15;34.33;100820.59;4212536;28;22409;-69
2023/06/11 06:26:56;;;;;;;2.60;1.80;;;;;;;24.13;32.39;100824.75;4194850;28;20696;-69
2023/06/11 06:29:23;;;;;;;6.30;2.20;;;;;;;23.82;33.17;100829.25;4199118;28;20235;-69
2023/06/11 06:31:50;;;;;;;5.37;2.23;;;;;;;23.62;32.94;100832.19;4200865;28;21407;-71
2023/06/11 06:34:17;;;;;;;2.67;1.70;;;;;;;23.08;33.41;100824.22;4204366;28;21689;-72
2023/06/11 06:36:43;;;;;;;7.63;1.80;;;;;;;23.82;32.73;100829.25;4209286;28;20309;-71
2023/06/11 06:39:10;;;;;;;13.57;2.33;;;;;;;24.20;32.28;100828.31;4212851;28;20291;-72
2023/06/11 06:41:37;;;;;;;3.73;2.10;;;;;;;24.77;31.28;100818.09;4214873;28;20237;-70
2023/06/11 06:44:04;;;;;;;6.77;2.20;;;;;;;24.19;32.25;100829.38;4199736;28;20241;-72
2023/06/11 06:46:30;;;;;;;5.73;1.90;;;;;;;23.83;32.41;100824.59;4190438;28;21850;-71
2023/06/11 06:48:57;;;;;;;6.37;2.37;;;;;;;23.90;32.08;100825.38;4211424;28;20232;-71
2023/06/11 06:51:23;;;;;;;8.03;2.13;;;;;;;24.58;30.96;100815.34;4200095;28;20246;-69
2023/06/11 06:53:50;;;;;;;3.60;1.90;;;;;;;24.62;31.17;100821.25;4196804;28;20234;-69
2023/06/11 06:56:17;;;;;;;3.83;1.80;;;;;;;24.05;31.76;100820.38;4191335;28;20237;-71
2023/06/11 06:58:44;;;;;;;3.70;2.20;;;;;;;23.48;32.15;100825.94;4199715;28;20234;-70
2023/06/11 07:01:11;;;;;;;3.13;1.83;;;;;;;23.44;32.15;100824.69;4195475;28;20236;-71
2023/06/11 07:03:37;;;;;;;3.40;1.70;;;;;;;22.70;33.40;100814.00;4196289;28;21605;-70
2023/06/11 07:06:04;;;;;;;6.03;1.90;;;;;;;23.83;31.82;100817.13;4213601;28;20237;-70
2023/06/11 07:08:31;;;;;;;10.13;2.00;;;;;;;24.35;31.34;100824.31;4200829;28;20602;-71
2023/06/11 07:10:58;;;;;;;4.43;1.80;;;;;;;23.07;31.52;100827.22;4197540;28;25647;-73
2023/06/11 07:13:24;;;;;;;5.10;1.80;;;;;;;23.13;32.00;100815.28;4204270;28;20547;-69
2023/06/11 07:15:51;;;;;;;8.80;1.70;;;;;;;23.30;31.52;100821.16;4190964;28;20237;-75
2023/06/11 07:18:18;;;;;;;7.80;1.73;;;;;;;24.12;30.51;100819.47;4213994;28;20259;-69
2023/06/11 07:20:44;;;;;;;4.47;1.60;;;;;;;23.61;30.29;100822.19;4197818;28;20324;-70
2023/06/11 07:23:11;;;;;;;5.50;2.10;;;;;;;23.58;30.55;100817.16;4191970;28;20233;-68
2023/06/11 07:25:39;;;;;;;7.03;1.70;;;;;;;23.17;30.96;100826.72;4224128;28;22933;-69
2023/06/11 07:28:05;;;;;;;3.90;1.50;;;;;;;22.65;31.01;100827.63;4205907;28;20236;-71
2023/06/11 07:30:33;;;;;;;6.77;1.70;;;;;;;22.72;31.29;100825.69;4207673;28;20355;-72
2023/06/11 07:33:00;;;;;;;4.97;1.57;;;;;;;22.22;31.71;100829.00;4199315;28;20241;-71
2023/06/11 07:35:27;;;;;;;13.27;2.10;;;;;;;21.92;32.37;100825.88;4214723;28;20991;-72
2023/06/11 07:37:54;;;;;;;4.23;1.53;;;;;;;21.68;31.36;100809.75;4210503;28;20264;-68
2023/06/11 07:40:21;;;;;;;4.30;1.63;;;;;;;21.45;31.28;100829.44;4194412;28;20298;-70
2023/06/11 07:42:48;;;;;;;4.63;1.30;;;;;;;21.25;32.19;100828.56;4202679;28;20236;-69
2023/06/11 07:45:15;;;;;;;5.80;1.60;;;;;;;21.47;31.36;100818.19;4215254;28;20239;-68
2023/06/11 07:47:41;;;;;;;7.07;1.83;;;;;;;21.71;31.35;100822.28;4203197;28;20232;-70
2023/06/11 07:50:09;;;;;;;4.20;1.33;;;;;;;21.93;31.31;100827.56;4190704;28;20273;-70
2023/06/11 07:52:36;;;;;;;10.27;1.77;;;;;;;22.30;30.50;100823.25;4201979;28;20232;-70
2023/06/11 07:55:03;;;;;;;4.97;1.47;;;;;;;21.61;31.42;100828.19;4212191;28;20278;-71
2023/06/11 07:57:30;;;;;;;3.30;1.40;;;;;;;21.09;30.95;100814.13;4226856;28;20224;-69
2023/06/11 07:59:56;;;;;;;3.10;1.50;;;;;;;21.02;31.34;100807.75;4210207;28;20229;-70
2023/06/11 08:02:23;;;;;;;7.63;1.50;;;;;;;21.75;30.98;100809.75;4226341;28;20235;-72
2023/06/11 08:04:50;;;;;;;2.73;1.53;;;;;;;22.06;30.46;100822.03;4223651;28;22184;-72
2023/06/11 08:07:17;;;;;;;5.43;2.13;;;;;;;21.77;30.81;100818.66;4216896;28;25012;-67
2023/06/11 08:09:43;;;;;;;6.57;1.43;;;;;;;21.57;31.17;100826.94;4193411;28;20392;-69
2023/06/11 08:12:11;;;;;;;3.43;1.70;;;;;;;21.11;31.65;100823.00;4218468;28;22248;-69
2023/06/11 08:14:38;;;;;;;4.63;1.40;;;;;;;21.41;30.86;100810.78;4206954;28;22032;-71
2023/06/11 08:17:04;;;;;;;3.43;1.60;;;;;;;21.09;31.91;100814.13;4187454;28;21800;-71
2023/06/11 08:19:31;;;;;;;3.67;1.60;;;;;;;21.03;32.25;100820.47;4191526;28;20764;-71
2023/06/11 08:22:00;;;;;;;6.67;2.00;;;;;;;21.48;32.39;100801.47;4219869;28;20605;-69
2023/06/11 08:24:27;;;;;;;4.23;1.70;;;;;;;21.56;32.93;100814.19;4200208;28;22571;-70
2023/06/11 08:26:55;;;;;;;5.17;1.50;;;;;;;21.81;31.56;100806.16;4235113;28;20233;-73
2023/06/11 08:29:21;;;;;;;6.53;1.70;;;;;;;21.80;31.19;100804.44;4211409;28;21924;-69
2023/06/11 08:31:49;;;;;;;7.27;1.77;;;;;;;21.66;30.80;100808.28;4189492;28;22299;-72
2023/06/11 08:34:16;;;;;;;3.47;1.40;;;;;;;21.38;30.87;100810.13;4214830;28;20798;-70
2023/06/11 08:36:43;;;;;;;4.20;1.40;;;;;;;21.13;32.32;100811.78;4223050;28;22172;-72
2023/06/11 08:39:10;;;;;;;4.90;1.77;;;;;;;21.15;32.77;100809.69;4217587;28;20260;-69
2023/06/11 08:41:37;;;;;;;3.93;1.70;;;;;;;21.17;31.79;100805.66;4181614;28;20460;-68
2023/06/11 08:44:03;;;;;;;7.80;1.57;;;;;;;20.87;32.57;100808.75;4209157;28;20235;-69
2023/06/11 08:46:36;;;;;;;4.20;1.70;;;;;;;21.08;33.60;100797.78;4230004;28;20244;-70
2023/06/11 08:49:07;;;;;;;6.33;1.87;;;;;;;21.41;33.19;100808.03;4227241;28;20237;-69
2023/06/11 08:51:38;;;;;;;2.73;1.63;;;;;;;20.96;34.58;100792.91;4209609;28;20279;-70
2023/06/11 08:54:09;;;;;;;4.37;1.67;;;;;;;21.16;33.72;100792.09;4232259;28;22366;-70
2023/06/11 08:56:36;;;;;;;8.00;1.90;;;;;;;21.34;33.56;100795.09;4219461;28;20259;-71
2023/06/11 08:59:03;;;;;;;6.80;1.93;;;;;;;20.84;34.86;100811.91;4203994;28;20312;-69
2023/06/11 09:01:31;;;;;;;4.20;1.90;;;;;;;20.78;34.55;100800.88;4214942;28;20295;-72
2023/06/11 09:03:59;;;;;;;4.20;1.70;;;;;;;21.00;34.82;100805.19;4217148;28;20237;-67
2023/06/11 09:06:27;;;;;;;2.87;2.00;;;;;;;20.85;33.56;100788.84;4224754;28;20402;-68
2023/06/11 09:09:02;;;;;;;5.20;1.63;;;;;;;20.63;34.73;100793.59;4184874;28;20411;-70
2023/06/11 09:11:36;;;;;;;7.03;2.03;;;;;;;20.85;34.25;100788.00;4197140;28;20715;-71
2023/06/11 09:14:04;;;;;;;5.30;1.70;;;;;;;20.88;35.28;100793.09;4204336;28;20310;-71
2023/06/11 09:16:39;;;;;;;4.73;1.70;;;;;;;21.35;34.67;100785.78;4206447;28;20236;-71
2023/06/11 09:19:08;;;;;;;4.73;1.73;;;;;;;21.08;34.97;100784.88;4201052;28;20261;-73
2023/06/11 09:21:36;;;;;;;7.20;1.87;;;;;;;20.65;35.18;100777.75;4218991;28;20687;-70
2023/06/11 09:24:09;;;;;;;3.53;1.60;;;;;;;21.04;34.58;100791.84;4201301;28;20239;-72
2023/06/11 09:26:36;;;;;;;10.80;1.70;;;;;;;21.03;35.17;100785.50;4191297;28;22709;-68
2023/06/11 09:29:04;;;;;;;6.47;1.73;;;;;;;21.01;34.44;100781.28;4208131;28;20298;-70
2023/06/11 09:31:31;;;;;;;3.30;1.60;;;;;;;21.04;34.17;100765.19;4213259;28;22137;-68
2023/06/11 09:34:06;;;;;;;5.47;1.70;;;;;;;21.27;33.81;100780.47;4199913;28;20232;-68
2023/06/11 09:36:33;;;;;;;4.00;1.70;;;;;;;21.16;33.04;100770.06;4210436;28;21255;-70
2023/06/11 09:38:59;;;;;;;4.10;1.80;;;;;;;21.13;33.41;100760.31;4189032;28;20265;-71
2023/06/11 09:41:26;;;;;;;5.80;1.60;;;;;;;20.99;33.86;100764.97;4203899;28;20254;-68
2023/06/11 09:43:53;;;;;;;4.37;2.07;;;;;;;21.27;34.06;100768.59;4226195;28;20230;-69
2023/06/11 09:46:21;;;;;;;6.90;2.27;;;;;;;21.33;34.03;100776.88;4202684;28;20236;-69
2023/06/11 09:48:48;;;;;;;3.67;1.70;;;;;;;21.31;34.29;100778.16;4208004;28;20240;-71
2023/06/11 09:51:21;;;;;;;5.60;2.00;;;;;;;21.41;33.92;100780.47;4210312;28;20763;-73
2023/06/11 09:53:51;;;;;;;4.67;1.70;;;;;;;21.45;33.89;100762.50;4209816;28;20231;-71
2023/06/11 09:56:18;;;;;;;3.37;1.80;;;;;;;21.69;33.61;100770.13;4178171;28;20252;-68
2023/06/11 09:58:47;;;;;;;6.13;2.30;;;;;;;21.88;33.87;100764.81;4194668;28;20236;-71
2023/06/11 10:01:15;;;;;;;4.43;1.83;;;;;;;21.79;34.60;100766.91;4199475;28;20280;-69
2023/06/11 10:03:42;;;;;;;8.43;2.00;;;;;;;21.46;34.26;100759.50;4209995;28;20244;-69
2023/06/11 10:06:15;;;;;;;3.37;2.10;;;;;;;21.73;34.39;100775.22;4203506;28;20395;-70
2023/06/11 10:08:44;;;;;;;5.40;2.03;;;;;;;21.82;34.25;100766.50;4193735;28;20356;-68
2023/06/11 10:11:11;;;;;;;9.50;2.00;;;;;;;21.82;33.21;100760.16;4199788;28;21186;-67
2023/06/11 10:13:38;;;;;;;4.63;2.30;;;;;;;21.73;33.48;100767.78;4198482;28;20638;-67
2023/06/11 10:16:11;;;;;;;8.03;2.13;;;;;;;21.24;34.15;100771.78;4211400;28;20425;-66
2023/06/11 10:18:37;;;;;;;3.80;2.13;;;;;;;21.35;34.26;100754.63;4202376;28;20251;-67
2023/06/11 10:21:04;;;;;;;3.80;1.80;;;;;;;21.30;34.28;100759.94;4195174;28;20350;-70
2023/06/11 10:23:36;;;;;;;5.43;1.90;;;;;;;21.48;34.41;100753.78;4204360;28;20274;-69
2023/06/11 10:26:03;;;;;;;6.60;1.70;;;;;;;21.62;34.10;100751.91;4204244;28;20233;-69
2023/06/11 10:28:44;;;;;;;7.50;2.07;;;;;;;21.57;34.36;100747.03;4186324;28;20293;-68
2023/06/11 10:31:11;;;;;;;6.43;1.90;;;;;;;21.50;34.19;100741.50;4198615;28;20595;-70
2023/06/11 10:33:40;;;;;;;5.23;1.70;;;;;;;21.49;33.53;100742.53;4208243;28;20229;-72
2023/06/11 10:36:07;;;;;;;3.40;1.73;;;;;;;21.43;33.23;100739.81;4209728;28;20233;-68
2023/06/11 10:38:38;;;;;;;5.73;2.07;;;;;;;21.63;33.63;100742.59;4197662;28;20702;-71
2023/06/11 10:41:04;;;;;;;6.40;1.90;;;;;;;21.61;32.15;100742.78;4188590;28;20877;-68
2023/06/11 10:43:32;;;;;;;4.43;2.07;;;;;;;21.43;32.76;100743.41;4193420;28;20945;-67
2023/06/11 10:46:03;;;;;;;5.63;1.97;;;;;;;21.38;32.61;100735.78;4194790;28;20356;-68
2023/06/11 10:48:30;;;;;;;4.77;1.57;;;;;;;21.71;32.46;100742.38;4207872;28;20232;-67
2023/06/11 10:51:03;;;;;;;4.27;1.97;;;;;;;21.77;32.82;100730.50;4210897;28;21839;-69
2023/06/11 10:53:40;;;;;;;5.90;2.23;;;;;;;22.17;33.40;100740.56;4200922;28;20311;-68
2023/06/11 10:56:09;;;;;;;5.83;2.30;;;;;;;22.05;31.49;100743.13;4188449;28;20280;-66
2023/06/11 10:58:36;;;;;;;7.10;1.87;;;;;;;22.03;31.76;100739.75;4208461;28;20339;-68
2023/06/11 11:01:06;;;;;;;4.43;2.17;;;;;;;22.15;30.92;100746.31;4219457;28;20282;-66
2023/06/11 11:03:34;;;;;;;3.63;2.00;;;;;;;21.95;29.96;100748.25;4205869;28;20227;-73
2023/06/11 11:06:02;;;;;;;3.97;1.83;;;;;;;21.82;29.88;100746.38;4208376;28;20414;-63
2023/06/11 11:08:28;;;;;;;5.87;2.20;;;;;;;22.00;30.77;100742.94;4208412;28;23496;-70
2023/06/11 11:11:01;;;;;;;5.20;2.13;;;;;;;21.92;31.82;100740.44;4208420;28;20248;-70
2023/06/11 11:13:28;;;;;;;9.67;2.23;;;;;;;22.03;32.39;100738.91;4207516;28;21863;-67
2023/06/11 11:15:56;;;;;;;5.00;2.10;;;;;;;22.01;32.67;100733.63;4189427;28;20630;-72
2023/06/11 11:18:22;;;;;;;10.20;2.30;;;;;;;22.30;32.91;100742.44;4176661;28;20233;-71
2023/06/11 11:20:51;;;;;;;9.00;2.33;;;;;;;22.48;32.42;100739.00;4213631;28;20283;-70
2023/06/11 11:23:18;;;;;;;6.13;2.00;;;;;;;22.39;32.39;100738.41;4219741;28;20606;-72
2023/06/11 11:25:45;;;;;;;7.40;2.10;;;;;;;22.38;32.45;100744.09;4212312;28;20239;-72